Historyczne dane pomiarowe

Dodano dane terminowe – wersja testowa.

Dane z okresu 1951-2019

Wersja bazy: 1.34 [2019-03-16, lista zmian], aktualizacja planowana na 2019-04-15

Dane meteo z obszaru Polski uzyskane na podstawie danych udostępnionych przez Instytut Meteorologii i Gospodarki Wodnej – Państwowy Instytut Badawczy.

 

Wybierz Datę:    

       

TemperaturaWilgotnośćWiatrCiśnienieOpadyŚniegCzas trwania zjawisk
 Stacja t tx tn tng RH VA  wxwx mslp ppp RRR   cm mm wxwxwxwxwxwxwx
1983-08-14 12.5 16.2 10.1 8.0 77.3- 5.3 3.3---- 0.0------------
1983-08-13 13.6 20.2 9.1 11.6 86.8- 6.3 2.0---- 4.1------------
1983-08-12 16.7 21.6 15.0 13.4 94.0- 6.0 1.7---- 5.3------------
1983-08-11 15.9 20.6 12.1 10.9 95.8- 8.0 1.3---- 32.0------------
1983-08-10 16.1 23.0 12.5 10.2 91.0- 7.0 3.0---- 14.8------------
1983-08-09 16.2 23.0 11.9 10.2 88.0- 6.7 2.0---- 4.3------------
1983-08-08 16.5 22.8 11.3 9.0 88.8- 7.0 1.7---- 1.1------------
1983-08-07 15.3 20.6 12.5 11.5 90.3- 7.0 1.0---- 8.7------------
1983-08-06 10.9 19.8 4.0 2.9 81.0- 7.3 2.0---- 0.5------------
1983-08-05 11.8 15.5 9.5 8.9 82.8- 8.0 1.0---- 0.1------------
1983-08-04 12.6 20.7 10.7 11.0 95.0- 8.0 1.0---- 4.9------------
1983-08-03 18.6 23.7 13.6 11.2 83.8- 5.0 1.0---- 3.3------------
1983-08-02 17.8 29.2 6.9 7.0 83.0- 1.3 0.0---- 0.0------------
1983-08-01 14.2 24.2 3.9 2.5 78.0- 0.0 0.7---- 0.0------------
1983-07-31 15.0 20.5 10.1 8.4 84.0- 4.0 0.7---- 0.0------------
1983-07-30 14.1 19.2 6.5 5.4 88.3- 5.3 1.0---- 2.1------------
1983-07-29 16.2 22.7 8.9 6.9 84.8- 3.3 3.0---- 0.0------------
1983-07-28 19.0 25.0 11.9 10.8 84.0- 6.3 3.0---- 0.0------------
1983-07-27 20.4 26.8 12.6 7.6 82.8- 1.3 1.3---- 3.6------------
1983-07-26 17.1 23.0 13.0 10.2 86.0- 6.0 2.0---- 0.2------------
1983-07-25 13.6 18.5 10.5 8.8 84.5- 6.3 2.7---- 0.6------------
1983-07-24 13.9 16.5 12.1 11.0 93.8- 8.0 2.7---- 1.9------------
1983-07-23 13.6 17.8 10.5 9.4 86.5- 8.0 2.3---- 11.2------------
1983-07-22 11.9 14.5 8.6 6.1 80.8- 7.7 5.0---- 16.8------------
1983-07-21 10.1 14.6 5.5 4.0 85.3- 8.0 2.7---- 6.7------------
1983-07-20 16.8 22.7 12.9 12.0 83.0- 7.3 4.0---- 3.2------------
1983-07-19 18.6 29.0 8.3 7.0 82.3- 1.0 2.0---- 0.0------------
1983-07-18 18.4 26.8 11.7 12.1 83.3- 3.3 2.0---- 0.0------------
1983-07-17 17.4 24.9 9.9 7.6 85.3- 7.0 1.0---- 0.4------------
1983-07-16 16.1 25.5 5.7 6.0 77.8- 1.3 2.0---- 0.0------------
1983-07-15 18.8 22.1 15.7 14.9 80.5- 3.3 1.3---- 0.0------------
1983-07-14 16.4 20.6 14.4 13.7 91.5- 7.7 2.3---- 20.6------------
1983-07-13 16.0 20.2 13.5 12.2 91.5- 7.0 1.7---- 2.6------------
1983-07-12 15.7 19.0 12.2 11.2 88.3- 6.7 1.0---- 9.4------------
1983-07-11 15.5 21.5 10.5 9.0 85.8- 6.0 0.7---- 12.7------------
1983-07-10 17.0 23.5 8.9 7.9 80.3- 5.0 1.0---- 8.9------------
1983-07-09 16.8 24.5 6.6 5.5 79.0- 1.3 0.7---- 0.0------------
1983-07-08 16.4 23.6 6.4 5.5 73.3- 1.0 1.7---- 0.0------------
1983-07-07 17.0 25.0 7.3 6.5 75.0- 1.0 1.0---- 0.0------------
1983-07-06 17.1 24.7 9.3 8.5 77.3- 0.0 1.0---- 0.0------------
1983-07-05 16.9 24.6 7.8 7.8 79.3- 2.7 0.7---- 0.0------------
1983-07-04 15.8 22.9 7.8 8.4 82.0- 3.7 1.0---- 0.0------------
1983-07-03 16.9 21.0 13.7 13.9 88.5- 6.7 1.3---- 0.0------------
1983-07-02 14.7 20.5 9.3 8.5 93.3- 7.0 0.0---- 58.8------------
1983-07-01 15.9 24.7 7.3 7.5 79.5- 3.3 0.7---- 0.4------------
1983-06-30 13.4 20.3 3.7 3.0 80.5- 2.7 1.7---- 0.0------------
1983-06-29 13.8 16.0 11.3 10.7 80.3- 8.0 0.7---- 0.0------------
1983-06-28 17.0 21.5 15.2 13.1 87.0- 8.0 2.3---- 10.3------------
1983-06-27 17.3 25.0 7.7 6.5 78.3- 1.7 2.0---- 0.8------------
1983-06-26 17.7 21.2 9.9 7.8 80.3- 5.0 0.7---- 7.4------------
1983-06-25 18.3 23.7 8.1 6.0 62.0- 0.0 4.0---- 0.0------------
1983-06-24 14.3 23.5 1.6 0.6 67.5- 0.3 3.0---- 0.0------------
1983-06-23 12.1 18.4 0.7 -0.4 70.8- 0.3 1.0---- 0.0------------
1983-06-22 13.2 20.0 9.5 7.9 67.3- 0.0 3.3---- 0.0------------
1983-06-21 17.2 22.4 13.3 11.0 83.8- 5.0 0.3---- 0.0------------
1983-06-20 16.6 19.7 13.5 12.7 91.8- 7.3 1.0---- 0.1------------
1983-06-19 15.0 19.8 10.5 10.2 93.8- 8.0 2.0---- 23.3------------
1983-06-18 11.4 12.5 9.7 10.5 96.0- 8.0 3.0---- 41.0------------
1983-06-17 10.6 12.2 8.1 8.0 85.8- 8.0 1.7---- 11.0------------
1983-06-16 11.4 14.9 9.5 10.5 92.8- 8.0 2.0---- 14.7------------
566.8 ms

 

Źródłem pochodzenia danych jest Instytut Meteorologii i Gospodarki Wodnej – Państwowy Instytut Badawczy. Dane Instytutu Meteorologii i Gospodarki Wodnej – Państwowego Instytutu Badawczego zostały przetworzone.

Dane źródłowe można odnaleźć na stronie https://dane.imgw.pl